Hovedside
METAR-TAF:

METAR-TAF

Lufthavner :

Larnaka internasjonale lufthavn

Larnaka, Kypros

breddegrad: 34-53N, lengdegrad: 033-38E, høyde over havet: 2 m

Gjeldene værobservasjon

Denne rapporten ble laget for 33 minutter siden, klokken 15:30 UTC
Vind 5 kt fra Sørvest
Temperatur 20°C
Luftfuktighet 60%
Trykk 1019 hPa
Sikt 10 km eller mer
ingen skyer under 1500 m og ingen bygeskyer

METAR: LCLK 201530Z 22005KT CAVOK 20/12 Q1019 NOSIG

Tid: 18:03 (16:03 UTC)

Varsel

Denne rapporten ble laget for 4 timer og 33 minutter siden, klokken 11:30 UTC
Varsel gyldig fra 20. klokken 12 UTC til 21. klokken 12 UTC
Vind 10 kt fra Sør
Sikt 10 km eller mer
Få skyer i en høyde av 2500 ft
Blir
fra 20. klokken 16 UTC til 20. klokken 19 UTC
Vind 6 kt fra Nordvest
Blir
fra 21. klokken 08 UTC til 21. klokken 11 UTC
Vind 12 kt fra Sørvest

TAF: LCLK 201130Z 2012/2112 17010KT 9999 FEW025 BECMG 2016/2019 32006KT BECMG 2108/2111 22012KT

Værobservasjoner og værvarsel for over 4000 flyplasser (METAR- og TAF-rapporter).

Tilgjengelige stasjoner er representert av de røde og gule prikkene på kartet.

Hold musepekeren over prikken for å se navnet på stasjonen.

Klikk så for å se værobservasjoner og -varsler.

For å forandre kartet kan du klikke på den grønne knappen med svart kryss for å zoome inn, på den grønne knappen med strek for å zoome ut, eller på de grønne pilene for å se tilstøtende kart.


METAR-TAF: